sensor_id;sensor_type;location;lat;lon;timestamp;temperature;humidity
67868;SHT31;54672;46.096;14.470;2022-08-25T00:01:33;20.35;82.48
67868;SHT31;54672;46.096;14.470;2022-08-25T00:04:01;20.31;82.93
67868;SHT31;54672;46.096;14.470;2022-08-25T00:06:28;20.27;82.98
67868;SHT31;54672;46.096;14.470;2022-08-25T00:08:54;20.32;82.89
67868;SHT31;54672;46.096;14.470;2022-08-25T00:11:25;20.31;82.65
67868;SHT31;54672;46.096;14.470;2022-08-25T00:13:54;20.24;82.86
67868;SHT31;54672;46.096;14.470;2022-08-25T00:16:21;20.23;83.04
67868;SHT31;54672;46.096;14.470;2022-08-25T00:18:51;20.25;82.99
67868;SHT31;54672;46.096;14.470;2022-08-25T00:21:17;20.27;82.80
67868;SHT31;54672;46.096;14.470;2022-08-25T00:23:43;20.28;82.75
67868;SHT31;54672;46.096;14.470;2022-08-25T00:26:10;20.32;82.48
67868;SHT31;54672;46.096;14.470;2022-08-25T00:28:36;20.35;82.47
67868;SHT31;54672;46.096;14.470;2022-08-25T00:31:03;20.32;82.43
67868;SHT31;54672;46.096;14.470;2022-08-25T00:33:29;20.24;82.75
67868;SHT31;54672;46.096;14.470;2022-08-25T00:35:58;20.24;82.89
67868;SHT31;54672;46.096;14.470;2022-08-25T00:38:24;20.24;82.92
67868;SHT31;54672;46.096;14.470;2022-08-25T00:40:50;20.20;82.93
67868;SHT31;54672;46.096;14.470;2022-08-25T00:43:56;20.17;83.17
67868;SHT31;54672;46.096;14.470;2022-08-25T00:46:27;20.11;83.40
67868;SHT31;54672;46.096;14.470;2022-08-25T00:48:59;20.04;83.73
67868;SHT31;54672;46.096;14.470;2022-08-25T00:51:51;19.97;84.08
67868;SHT31;54672;46.096;14.470;2022-08-25T00:54:27;19.97;84.15
67868;SHT31;54672;46.096;14.470;2022-08-25T00:56:55;20.00;84.06
67868;SHT31;54672;46.096;14.470;2022-08-25T00:59:23;20.00;84.07
67868;SHT31;54672;46.096;14.470;2022-08-25T01:01:50;19.96;84.14
67868;SHT31;54672;46.096;14.470;2022-08-25T01:04:17;19.89;84.66
67868;SHT31;54672;46.096;14.470;2022-08-25T01:06:43;19.77;84.94
67868;SHT31;54672;46.096;14.470;2022-08-25T01:09:10;19.73;85.00
67868;SHT31;54672;46.096;14.470;2022-08-25T01:11:36;19.72;84.93
67868;SHT31;54672;46.096;14.470;2022-08-25T01:14:02;19.70;85.10
67868;SHT31;54672;46.096;14.470;2022-08-25T01:16:33;19.70;85.07
67868;SHT31;54672;46.096;14.470;2022-08-25T01:18:58;19.69;85.05
67868;SHT31;54672;46.096;14.470;2022-08-25T01:21:26;19.66;85.05
67868;SHT31;54672;46.096;14.470;2022-08-25T01:23:54;19.65;85.13
67868;SHT31;54672;46.096;14.470;2022-08-25T01:26:25;19.66;85.18
67868;SHT31;54672;46.096;14.470;2022-08-25T01:28:51;19.65;85.23
67868;SHT31;54672;46.096;14.470;2022-08-25T01:31:36;19.62;85.56
67868;SHT31;54672;46.096;14.470;2022-08-25T01:34:03;19.56;85.83
67868;SHT31;54672;46.096;14.470;2022-08-25T01:36:31;19.35;86.64
67868;SHT31;54672;46.096;14.470;2022-08-25T01:38:57;19.36;86.65
67868;SHT31;54672;46.096;14.470;2022-08-25T01:43:54;19.38;86.60
67868;SHT31;54672;46.096;14.470;2022-08-25T01:46:19;19.38;86.77
67868;SHT31;54672;46.096;14.470;2022-08-25T01:48:45;19.38;86.86
67868;SHT31;54672;46.096;14.470;2022-08-25T01:51:13;19.31;87.02
67868;SHT31;54672;46.096;14.470;2022-08-25T01:53:39;19.26;87.00
67868;SHT31;54672;46.096;14.470;2022-08-25T01:56:10;19.21;87.39
67868;SHT31;54672;46.096;14.470;2022-08-25T01:58:38;19.19;87.67
67868;SHT31;54672;46.096;14.470;2022-08-25T02:01:08;19.16;87.83
67868;SHT31;54672;46.096;14.470;2022-08-25T02:03:41;19.14;88.01
67868;SHT31;54672;46.096;14.470;2022-08-25T02:06:07;19.07;88.12
67868;SHT31;54672;46.096;14.470;2022-08-25T02:08:34;19.07;88.22
67868;SHT31;54672;46.096;14.470;2022-08-25T02:11:00;19.11;88.08
67868;SHT31;54672;46.096;14.470;2022-08-25T02:13:26;19.12;87.93
67868;SHT31;54672;46.096;14.470;2022-08-25T02:15:53;19.26;87.62
67868;SHT31;54672;46.096;14.470;2022-08-25T02:18:21;19.04;88.28
67868;SHT31;54672;46.096;14.470;2022-08-25T02:20:47;18.95;88.69
67868;SHT31;54672;46.096;14.470;2022-08-25T02:23:12;18.97;88.60
67868;SHT31;54672;46.096;14.470;2022-08-25T02:25:39;18.98;88.53
67868;SHT31;54672;46.096;14.470;2022-08-25T02:28:06;18.93;88.88
67868;SHT31;54672;46.096;14.470;2022-08-25T02:30:33;18.95;88.65
67868;SHT31;54672;46.096;14.470;2022-08-25T02:32:59;19.11;87.99
67868;SHT31;54672;46.096;14.470;2022-08-25T02:35:24;19.12;87.93
67868;SHT31;54672;46.096;14.470;2022-08-25T02:37:50;19.11;88.33
67868;SHT31;54672;46.096;14.470;2022-08-25T02:40:17;19.00;88.65
67868;SHT31;54672;46.096;14.470;2022-08-25T02:42:42;19.02;88.51
67868;SHT31;54672;46.096;14.470;2022-08-25T02:45:09;19.00;88.52
67868;SHT31;54672;46.096;14.470;2022-08-25T02:47:34;19.04;88.25
67868;SHT31;54672;46.096;14.470;2022-08-25T02:50:03;19.00;88.38
67868;SHT31;54672;46.096;14.470;2022-08-25T02:52:29;19.00;88.48
67868;SHT31;54672;46.096;14.470;2022-08-25T02:54:54;18.94;88.63
67868;SHT31;54672;46.096;14.470;2022-08-25T02:57:20;18.95;88.59
67868;SHT31;54672;46.096;14.470;2022-08-25T02:59:45;18.83;89.09
67868;SHT31;54672;46.096;14.470;2022-08-25T03:02:13;18.85;89.10
67868;SHT31;54672;46.096;14.470;2022-08-25T03:04:40;18.68;89.52
67868;SHT31;54672;46.096;14.470;2022-08-25T03:07:06;18.68;89.49
67868;SHT31;54672;46.096;14.470;2022-08-25T03:09:31;18.70;89.39
67868;SHT31;54672;46.096;14.470;2022-08-25T03:11:56;18.77;89.35
67868;SHT31;54672;46.096;14.470;2022-08-25T03:14:22;18.60;90.01
67868;SHT31;54672;46.096;14.470;2022-08-25T03:16:48;18.59;90.13
67868;SHT31;54672;46.096;14.470;2022-08-25T03:19:14;18.60;90.06
67868;SHT31;54672;46.096;14.470;2022-08-25T03:21:39;18.63;89.93
67868;SHT31;54672;46.096;14.470;2022-08-25T03:24:05;18.65;89.79
67868;SHT31;54672;46.096;14.470;2022-08-25T03:26:31;18.68;89.57
67868;SHT31;54672;46.096;14.470;2022-08-25T03:29:15;18.75;89.53
67868;SHT31;54672;46.096;14.470;2022-08-25T03:31:42;18.80;89.36
67868;SHT31;54672;46.096;14.470;2022-08-25T03:34:09;18.84;89.14
67868;SHT31;54672;46.096;14.470;2022-08-25T03:36:35;18.73;89.52
67868;SHT31;54672;46.096;14.470;2022-08-25T03:39:00;18.64;90.10
67868;SHT31;54672;46.096;14.470;2022-08-25T03:41:28;18.52;90.53
67868;SHT31;54672;46.096;14.470;2022-08-25T03:43:55;18.61;90.15
67868;SHT31;54672;46.096;14.470;2022-08-25T03:46:24;18.71;89.83
67868;SHT31;54672;46.096;14.470;2022-08-25T03:48:50;18.75;89.54
67868;SHT31;54672;46.096;14.470;2022-08-25T03:51:21;18.81;89.46
67868;SHT31;54672;46.096;14.470;2022-08-25T03:53:47;18.83;89.39
67868;SHT31;54672;46.096;14.470;2022-08-25T03:56:13;18.84;89.37
67868;SHT31;54672;46.096;14.470;2022-08-25T03:58:39;18.85;89.24
67868;SHT31;54672;46.096;14.470;2022-08-25T04:01:04;18.93;89.17
67868;SHT31;54672;46.096;14.470;2022-08-25T04:03:29;18.94;89.20
67868;SHT31;54672;46.096;14.470;2022-08-25T04:06:00;18.94;88.93
67868;SHT31;54672;46.096;14.470;2022-08-25T04:08:25;18.87;89.35
67868;SHT31;54672;46.096;14.470;2022-08-25T04:10:51;18.84;89.47
67868;SHT31;54672;46.096;14.470;2022-08-25T04:13:16;18.78;89.82
67868;SHT31;54672;46.096;14.470;2022-08-25T04:15:43;18.77;89.84
67868;SHT31;54672;46.096;14.470;2022-08-25T04:18:09;18.77;89.81
67868;SHT31;54672;46.096;14.470;2022-08-25T04:20:36;18.85;89.42
67868;SHT31;54672;46.096;14.470;2022-08-25T04:23:02;18.90;89.28
67868;SHT31;54672;46.096;14.470;2022-08-25T04:25:28;18.84;89.57
67868;SHT31;54672;46.096;14.470;2022-08-25T04:27:53;18.78;89.75
67868;SHT31;54672;46.096;14.470;2022-08-25T04:30:19;18.73;90.01
67868;SHT31;54672;46.096;14.470;2022-08-25T04:32:46;18.70;90.16
67868;SHT31;54672;46.096;14.470;2022-08-25T04:35:13;18.68;90.24
67868;SHT31;54672;46.096;14.470;2022-08-25T04:37:39;18.70;90.10
67868;SHT31;54672;46.096;14.470;2022-08-25T04:40:05;18.71;89.84
67868;SHT31;54672;46.096;14.470;2022-08-25T04:42:31;18.80;89.38
67868;SHT31;54672;46.096;14.470;2022-08-25T04:44:57;18.87;89.22
67868;SHT31;54672;46.096;14.470;2022-08-25T04:47:22;18.91;89.08
67868;SHT31;54672;46.096;14.470;2022-08-25T04:49:48;18.95;88.83
67868;SHT31;54672;46.096;14.470;2022-08-25T04:52:14;19.04;88.66
67868;SHT31;54672;46.096;14.470;2022-08-25T04:54:39;19.05;88.72
67868;SHT31;54672;46.096;14.470;2022-08-25T04:57:05;19.05;88.55
67868;SHT31;54672;46.096;14.470;2022-08-25T04:59:31;19.10;88.29
67868;SHT31;54672;46.096;14.470;2022-08-25T05:01:58;19.02;88.56
67868;SHT31;54672;46.096;14.470;2022-08-25T05:04:26;19.12;88.45
67868;SHT31;54672;46.096;14.470;2022-08-25T05:06:51;19.21;88.15
67868;SHT31;54672;46.096;14.470;2022-08-25T05:09:17;19.16;88.13
67868;SHT31;54672;46.096;14.470;2022-08-25T05:11:42;19.12;88.27
67868;SHT31;54672;46.096;14.470;2022-08-25T05:14:08;19.05;88.53
67868;SHT31;54672;46.096;14.470;2022-08-25T05:16:37;19.14;88.56
67868;SHT31;54672;46.096;14.470;2022-08-25T05:19:03;19.31;88.04
67868;SHT31;54672;46.096;14.470;2022-08-25T05:21:29;19.65;86.76
67868;SHT31;54672;46.096;14.470;2022-08-25T05:23:56;20.16;85.05
67868;SHT31;54672;46.096;14.470;2022-08-25T05:26:24;20.76;83.11
67868;SHT31;54672;46.096;14.470;2022-08-25T05:28:51;21.13;81.05
67868;SHT31;54672;46.096;14.470;2022-08-25T05:31:17;21.78;78.91
67868;SHT31;54672;46.096;14.470;2022-08-25T05:33:43;22.21;77.33
67868;SHT31;54672;46.096;14.470;2022-08-25T05:36:10;21.54;79.03
67868;SHT31;54672;46.096;14.470;2022-08-25T05:38:37;20.92;81.41
67868;SHT31;54672;46.096;14.470;2022-08-25T05:41:06;20.51;83.07
67868;SHT31;54672;46.096;14.470;2022-08-25T05:43:33;20.68;82.30
67868;SHT31;54672;46.096;14.470;2022-08-25T05:45:59;20.75;82.14
67868;SHT31;54672;46.096;14.470;2022-08-25T05:48:25;20.75;82.05
67868;SHT31;54672;46.096;14.470;2022-08-25T05:50:53;20.98;81.61
67868;SHT31;54672;46.096;14.470;2022-08-25T05:53:19;21.34;80.65
67868;SHT31;54672;46.096;14.470;2022-08-25T05:55:45;21.67;79.35
67868;SHT31;54672;46.096;14.470;2022-08-25T05:58:11;22.89;75.85
67868;SHT31;54672;46.096;14.470;2022-08-25T06:00:38;23.01;74.73
67868;SHT31;54672;46.096;14.470;2022-08-25T06:03:03;23.11;74.33
67868;SHT31;54672;46.096;14.470;2022-08-25T06:05:29;23.12;73.54
67868;SHT31;54672;46.096;14.470;2022-08-25T06:07:55;23.07;74.33
67868;SHT31;54672;46.096;14.470;2022-08-25T06:10:21;22.91;74.47
67868;SHT31;54672;46.096;14.470;2022-08-25T06:12:47;22.83;74.62
67868;SHT31;54672;46.096;14.470;2022-08-25T06:15:16;22.86;74.35
67868;SHT31;54672;46.096;14.470;2022-08-25T06:17:43;23.03;73.78
67868;SHT31;54672;46.096;14.470;2022-08-25T06:20:11;22.77;74.37
67868;SHT31;54672;46.096;14.470;2022-08-25T06:22:37;22.32;76.64
67868;SHT31;54672;46.096;14.470;2022-08-25T06:25:07;22.60;75.17
67868;SHT31;54672;46.096;14.470;2022-08-25T06:27:34;21.81;77.67
67868;SHT31;54672;46.096;14.470;2022-08-25T06:29:59;21.84;78.32
67868;SHT31;54672;46.096;14.470;2022-08-25T06:32:33;22.21;77.07
67868;SHT31;54672;46.096;14.470;2022-08-25T06:35:01;22.48;76.66
67868;SHT31;54672;46.096;14.470;2022-08-25T06:37:26;22.53;76.70
67868;SHT31;54672;46.096;14.470;2022-08-25T06:39:52;22.60;76.39
67868;SHT31;54672;46.096;14.470;2022-08-25T06:42:17;22.46;77.09
67868;SHT31;54672;46.096;14.470;2022-08-25T06:44:43;22.63;76.52
67868;SHT31;54672;46.096;14.470;2022-08-25T06:47:08;22.73;76.14
67868;SHT31;54672;46.096;14.470;2022-08-25T06:49:34;22.89;75.76
67868;SHT31;54672;46.096;14.470;2022-08-25T06:52:00;23.15;74.62
67868;SHT31;54672;46.096;14.470;2022-08-25T06:54:25;23.42;74.16
67868;SHT31;54672;46.096;14.470;2022-08-25T06:56:51;23.57;73.29
67868;SHT31;54672;46.096;14.470;2022-08-25T06:59:16;23.65;73.07
67868;SHT31;54672;46.096;14.470;2022-08-25T07:01:42;23.63;72.63
67868;SHT31;54672;46.096;14.470;2022-08-25T07:04:08;23.85;72.27
67868;SHT31;54672;46.096;14.470;2022-08-25T07:06:33;23.83;71.70
67868;SHT31;54672;46.096;14.470;2022-08-25T07:09:00;24.13;70.98
67868;SHT31;54672;46.096;14.470;2022-08-25T07:11:27;24.47;69.87
67868;SHT31;54672;46.096;14.470;2022-08-25T07:13:53;24.74;69.14
67868;SHT31;54672;46.096;14.470;2022-08-25T07:16:19;25.15;67.81
67868;SHT31;54672;46.096;14.470;2022-08-25T07:18:46;25.40;67.08
67868;SHT31;54672;46.096;14.470;2022-08-25T07:21:12;23.95;71.11
67868;SHT31;54672;46.096;14.470;2022-08-25T07:23:41;24.92;68.28
67868;SHT31;54672;46.096;14.470;2022-08-25T07:26:18;26.48;64.69
67868;SHT31;54672;46.096;14.470;2022-08-25T07:28:44;27.64;60.63
67868;SHT31;54672;46.096;14.470;2022-08-25T07:31:10;29.36;55.22
67868;SHT31;54672;46.096;14.470;2022-08-25T07:33:36;30.33;52.92
67868;SHT31;54672;46.096;14.470;2022-08-25T07:36:02;31.00;50.02
67868;SHT31;54672;46.096;14.470;2022-08-25T07:38:28;31.34;48.99
67868;SHT31;54672;46.096;14.470;2022-08-25T07:41:01;31.18;49.83
67868;SHT31;54672;46.096;14.470;2022-08-25T07:43:27;30.28;51.80
67868;SHT31;54672;46.096;14.470;2022-08-25T07:45:52;30.63;51.44
67868;SHT31;54672;46.096;14.470;2022-08-25T07:48:17;30.86;50.69
67868;SHT31;54672;46.096;14.470;2022-08-25T07:50:46;29.46;53.61
67868;SHT31;54672;46.096;14.470;2022-08-25T07:53:13;28.46;54.95
67868;SHT31;54672;46.096;14.470;2022-08-25T07:55:39;28.32;56.73
67868;SHT31;54672;46.096;14.470;2022-08-25T07:58:07;26.63;60.82
67868;SHT31;54672;46.096;14.470;2022-08-25T08:00:34;27.64;57.84
67868;SHT31;54672;46.096;14.470;2022-08-25T08:03:03;28.22;56.62
67868;SHT31;54672;46.096;14.470;2022-08-25T08:05:29;29.05;54.55
67868;SHT31;54672;46.096;14.470;2022-08-25T08:07:55;29.58;52.90
67868;SHT31;54672;46.096;14.470;2022-08-25T08:10:22;29.72;52.36
67868;SHT31;54672;46.096;14.470;2022-08-25T08:12:47;29.87;51.87
67868;SHT31;54672;46.096;14.470;2022-08-25T08:15:14;29.67;52.45
67868;SHT31;54672;46.096;14.470;2022-08-25T08:17:40;29.67;52.46
67868;SHT31;54672;46.096;14.470;2022-08-25T08:20:07;29.42;52.57
67868;SHT31;54672;46.096;14.470;2022-08-25T08:22:34;29.22;53.50
67868;SHT31;54672;46.096;14.470;2022-08-25T08:25:00;29.93;52.38
67868;SHT31;54672;46.096;14.470;2022-08-25T08:27:26;30.21;51.33
67868;SHT31;54672;46.096;14.470;2022-08-25T08:29:52;29.79;51.35
67868;SHT31;54672;46.096;14.470;2022-08-25T08:32:18;29.07;53.34
67868;SHT31;54672;46.096;14.470;2022-08-25T08:34:44;28.66;54.65
67868;SHT31;54672;46.096;14.470;2022-08-25T08:37:12;29.07;53.50
67868;SHT31;54672;46.096;14.470;2022-08-25T08:39:38;29.14;53.19
67868;SHT31;54672;46.096;14.470;2022-08-25T08:42:19;29.35;52.58
67868;SHT31;54672;46.096;14.470;2022-08-25T08:50:33;29.32;53.07
67868;SHT31;54672;46.096;14.470;2022-08-25T08:53:08;29.75;52.62
67868;SHT31;54672;46.096;14.470;2022-08-25T09:01:23;28.94;53.87
67868;SHT31;54672;46.096;14.470;2022-08-25T09:03:55;27.07;59.05
67868;SHT31;54672;46.096;14.470;2022-08-25T09:06:31;26.93;58.55
67868;SHT31;54672;46.096;14.470;2022-08-25T09:08:59;28.61;54.74
67868;SHT31;54672;46.096;14.470;2022-08-25T09:12:00;29.82;51.51
67868;SHT31;54672;46.096;14.470;2022-08-25T09:22:38;28.49;54.50
67868;SHT31;54672;46.096;14.470;2022-08-25T09:25:21;28.74;54.35
67868;SHT31;54672;46.096;14.470;2022-08-25T09:28:12;27.89;55.21
67868;SHT31;54672;46.096;14.470;2022-08-25T09:33:36;27.18;57.19
67868;SHT31;54672;46.096;14.470;2022-08-25T09:36:04;27.11;57.21
67868;SHT31;54672;46.096;14.470;2022-08-25T09:38:29;27.23;57.48
67868;SHT31;54672;46.096;14.470;2022-08-25T09:40:58;27.47;56.12
67868;SHT31;54672;46.096;14.470;2022-08-25T09:48:51;26.99;57.73
67868;SHT31;54672;46.096;14.470;2022-08-25T09:51:33;27.17;57.08
67868;SHT31;54672;46.096;14.470;2022-08-25T09:54:03;27.34;57.15
67868;SHT31;54672;46.096;14.470;2022-08-25T09:56:32;27.53;56.91
67868;SHT31;54672;46.096;14.470;2022-08-25T09:59:18;27.80;56.74
67868;SHT31;54672;46.096;14.470;2022-08-25T10:01:52;28.22;55.36
67868;SHT31;54672;46.096;14.470;2022-08-25T10:04:33;27.96;55.98
67868;SHT31;54672;46.096;14.470;2022-08-25T10:07:03;28.15;55.14
67868;SHT31;54672;46.096;14.470;2022-08-25T10:09:39;27.94;55.36
67868;SHT31;54672;46.096;14.470;2022-08-25T10:12:16;27.48;56.70
67868;SHT31;54672;46.096;14.470;2022-08-25T10:14:45;26.96;57.86
67868;SHT31;54672;46.096;14.470;2022-08-25T10:19:54;27.67;56.10
67868;SHT31;54672;46.096;14.470;2022-08-25T10:22:25;27.67;56.21
67868;SHT31;54672;46.096;14.470;2022-08-25T10:24:57;27.62;56.50
67868;SHT31;54672;46.096;14.470;2022-08-25T10:30:19;27.24;57.20
67868;SHT31;54672;46.096;14.470;2022-08-25T10:47:44;28.39;54.37
67868;SHT31;54672;46.096;14.470;2022-08-25T10:50:31;28.80;53.39
67868;SHT31;54672;46.096;14.470;2022-08-25T11:04:14;28.68;53.88
67868;SHT31;54672;46.096;14.470;2022-08-25T11:07:05;28.91;53.35
67868;SHT31;54672;46.096;14.470;2022-08-25T11:09:40;29.48;52.69
67868;SHT31;54672;46.096;14.470;2022-08-25T11:12:13;29.49;52.24
67868;SHT31;54672;46.096;14.470;2022-08-25T11:14:46;29.17;51.25
67868;SHT31;54672;46.096;14.470;2022-08-25T11:17:33;28.25;53.54
67868;SHT31;54672;46.096;14.470;2022-08-25T11:20:05;27.74;55.02
67868;SHT31;54672;46.096;14.470;2022-08-25T11:22:33;27.33;56.41
67868;SHT31;54672;46.096;14.470;2022-08-25T11:25:27;27.65;55.53
67868;SHT31;54672;46.096;14.470;2022-08-25T11:27:57;27.78;54.95
67868;SHT31;54672;46.096;14.470;2022-08-25T11:30:24;27.38;55.44
67868;SHT31;54672;46.096;14.470;2022-08-25T11:32:51;27.40;55.94
67868;SHT31;54672;46.096;14.470;2022-08-25T11:35:32;27.72;55.05
67868;SHT31;54672;46.096;14.470;2022-08-25T11:40:40;27.81;55.52
67868;SHT31;54672;46.096;14.470;2022-08-25T11:57:29;27.81;55.03
67868;SHT31;54672;46.096;14.470;2022-08-25T12:02:46;28.33;53.65
67868;SHT31;54672;46.096;14.470;2022-08-25T12:16:30;29.48;48.87
67868;SHT31;54672;46.096;14.470;2022-08-25T12:18:52;29.14;49.86
67868;SHT31;54672;46.096;14.470;2022-08-25T12:21:30;28.97;50.14
67868;SHT31;54672;46.096;14.470;2022-08-25T12:24:07;28.96;50.50
67868;SHT31;54672;46.096;14.470;2022-08-25T12:26:57;28.37;51.33
67868;SHT31;54672;46.096;14.470;2022-08-25T12:30:10;27.98;53.08
67868;SHT31;54672;46.096;14.470;2022-08-25T12:37:24;27.61;52.72
67868;SHT31;54672;46.096;14.470;2022-08-25T12:39:57;27.41;54.23
67868;SHT31;54672;46.096;14.470;2022-08-25T12:45:30;27.84;50.82
67868;SHT31;54672;46.096;14.470;2022-08-25T12:51:06;28.37;49.88
67868;SHT31;54672;46.096;14.470;2022-08-25T12:53:41;28.37;50.08
67868;SHT31;54672;46.096;14.470;2022-08-25T12:56:25;28.53;49.83
67868;SHT31;54672;46.096;14.470;2022-08-25T13:05:05;29.05;49.33
67868;SHT31;54672;46.096;14.470;2022-08-25T13:10:03;29.14;49.20
67868;SHT31;54672;46.096;14.470;2022-08-25T13:12:59;29.26;47.98
67868;SHT31;54672;46.096;14.470;2022-08-25T13:15:32;29.49;47.81
67868;SHT31;54672;46.096;14.470;2022-08-25T13:18:14;29.73;47.43
67868;SHT31;54672;46.096;14.470;2022-08-25T13:20:41;29.85;47.21
67868;SHT31;54672;46.096;14.470;2022-08-25T13:23:07;29.35;49.23
67868;SHT31;54672;46.096;14.470;2022-08-25T13:25:34;29.04;49.98
67868;SHT31;54672;46.096;14.470;2022-08-25T13:28:03;28.81;50.21
67868;SHT31;54672;46.096;14.470;2022-08-25T13:30:31;28.81;50.23
67868;SHT31;54672;46.096;14.470;2022-08-25T13:32:57;29.17;50.01
67868;SHT31;54672;46.096;14.470;2022-08-25T13:35:30;29.52;50.95
67868;SHT31;54672;46.096;14.470;2022-08-25T13:38:26;29.92;49.77
67868;SHT31;54672;46.096;14.470;2022-08-25T13:41:01;30.26;49.24
67868;SHT31;54672;46.096;14.470;2022-08-25T13:43:27;30.27;48.42
67868;SHT31;54672;46.096;14.470;2022-08-25T13:45:53;29.87;48.60
67868;SHT31;54672;46.096;14.470;2022-08-25T13:48:37;29.49;50.42
67868;SHT31;54672;46.096;14.470;2022-08-25T13:53:33;29.19;51.68
67868;SHT31;54672;46.096;14.470;2022-08-25T13:56:02;29.01;51.83
67868;SHT31;54672;46.096;14.470;2022-08-25T13:58:30;28.81;50.47
67868;SHT31;54672;46.096;14.470;2022-08-25T14:01:08;28.59;50.12
67868;SHT31;54672;46.096;14.470;2022-08-25T14:03:44;28.39;50.83
67868;SHT31;54672;46.096;14.470;2022-08-25T14:08:44;28.23;52.48
67868;SHT31;54672;46.096;14.470;2022-08-25T14:11:24;28.06;53.25
67868;SHT31;54672;46.096;14.470;2022-08-25T14:16:31;27.69;52.89
67868;SHT31;54672;46.096;14.470;2022-08-25T14:18:59;27.67;52.75
67868;SHT31;54672;46.096;14.470;2022-08-25T14:21:31;27.61;52.99
67868;SHT31;54672;46.096;14.470;2022-08-25T14:23:57;27.59;52.84
67868;SHT31;54672;46.096;14.470;2022-08-25T14:26:23;27.65;52.65
67868;SHT31;54672;46.096;14.470;2022-08-25T14:28:49;27.61;52.67
67868;SHT31;54672;46.096;14.470;2022-08-25T14:31:24;27.80;52.43
67868;SHT31;54672;46.096;14.470;2022-08-25T14:33:57;28.02;51.98
67868;SHT31;54672;46.096;14.470;2022-08-25T14:36:23;28.29;50.70
67868;SHT31;54672;46.096;14.470;2022-08-25T14:38:49;28.53;49.22
67868;SHT31;54672;46.096;14.470;2022-08-25T14:41:14;28.73;48.86
67868;SHT31;54672;46.096;14.470;2022-08-25T14:43:40;28.86;48.31
67868;SHT31;54672;46.096;14.470;2022-08-25T14:46:32;28.96;48.14
67868;SHT31;54672;46.096;14.470;2022-08-25T14:49:00;28.90;48.34
67868;SHT31;54672;46.096;14.470;2022-08-25T14:51:28;28.98;48.23
67868;SHT31;54672;46.096;14.470;2022-08-25T14:54:00;29.11;47.64
67868;SHT31;54672;46.096;14.470;2022-08-25T14:56:27;29.03;47.51
67868;SHT31;54672;46.096;14.470;2022-08-25T14:58:52;29.03;48.39
67868;SHT31;54672;46.096;14.470;2022-08-25T15:01:19;29.08;47.60
67868;SHT31;54672;46.096;14.470;2022-08-25T15:03:47;28.97;47.76
67868;SHT31;54672;46.096;14.470;2022-08-25T15:06:15;28.83;48.41
67868;SHT31;54672;46.096;14.470;2022-08-25T15:08:42;28.67;49.04
67868;SHT31;54672;46.096;14.470;2022-08-25T15:11:26;28.52;49.81
67868;SHT31;54672;46.096;14.470;2022-08-25T15:13:52;28.35;50.14
67868;SHT31;54672;46.096;14.470;2022-08-25T15:16:32;28.09;51.01
67868;SHT31;54672;46.096;14.470;2022-08-25T15:18:59;27.88;51.47
67868;SHT31;54672;46.096;14.470;2022-08-25T15:21:25;27.75;51.91
67868;SHT31;54672;46.096;14.470;2022-08-25T15:23:50;27.69;51.81
67868;SHT31;54672;46.096;14.470;2022-08-25T15:26:16;27.68;52.15
67868;SHT31;54672;46.096;14.470;2022-08-25T15:28:44;27.62;52.24
67868;SHT31;54672;46.096;14.470;2022-08-25T15:31:13;27.62;52.26
67868;SHT31;54672;46.096;14.470;2022-08-25T15:33:39;27.62;52.17
67868;SHT31;54672;46.096;14.470;2022-08-25T15:36:08;27.61;52.24
67868;SHT31;54672;46.096;14.470;2022-08-25T15:38:37;27.57;52.61
67868;SHT31;54672;46.096;14.470;2022-08-25T15:41:04;27.58;52.91
67868;SHT31;54672;46.096;14.470;2022-08-25T15:43:30;27.55;53.36
67868;SHT31;54672;46.096;14.470;2022-08-25T15:45:55;27.53;53.93
67868;SHT31;54672;46.096;14.470;2022-08-25T15:48:24;27.46;54.47
67868;SHT31;54672;46.096;14.470;2022-08-25T15:50:54;27.48;54.62
67868;SHT31;54672;46.096;14.470;2022-08-25T15:53:20;27.44;54.75
67868;SHT31;54672;46.096;14.470;2022-08-25T15:55:47;27.33;54.09
67868;SHT31;54672;46.096;14.470;2022-08-25T15:58:13;27.33;51.54
67868;SHT31;54672;46.096;14.470;2022-08-25T16:00:39;27.33;51.35
67868;SHT31;54672;46.096;14.470;2022-08-25T16:03:05;27.31;51.13
67868;SHT31;54672;46.096;14.470;2022-08-25T16:05:31;27.26;51.56
67868;SHT31;54672;46.096;14.470;2022-08-25T16:07:56;27.24;51.59
67868;SHT31;54672;46.096;14.470;2022-08-25T16:10:22;27.18;51.95
67868;SHT31;54672;46.096;14.470;2022-08-25T16:12:47;27.14;52.75
67868;SHT31;54672;46.096;14.470;2022-08-25T16:15:13;27.09;53.01
67868;SHT31;54672;46.096;14.470;2022-08-25T16:17:38;27.13;53.30
67868;SHT31;54672;46.096;14.470;2022-08-25T16:20:04;27.13;53.63
67868;SHT31;54672;46.096;14.470;2022-08-25T16:22:30;27.16;54.97
67868;SHT31;54672;46.096;14.470;2022-08-25T16:24:55;27.10;55.46
67868;SHT31;54672;46.096;14.470;2022-08-25T16:27:21;27.07;56.54
67868;SHT31;54672;46.096;14.470;2022-08-25T16:29:47;27.11;57.48
67868;SHT31;54672;46.096;14.470;2022-08-25T16:32:13;27.07;57.65
67868;SHT31;54672;46.096;14.470;2022-08-25T16:34:39;27.09;57.74
67868;SHT31;54672;46.096;14.470;2022-08-25T16:37:05;27.11;57.76
67868;SHT31;54672;46.096;14.470;2022-08-25T16:39:30;27.11;57.67
67868;SHT31;54672;46.096;14.470;2022-08-25T16:41:56;27.03;57.88
67868;SHT31;54672;46.096;14.470;2022-08-25T16:44:21;26.97;58.18
67868;SHT31;54672;46.096;14.470;2022-08-25T16:46:47;26.96;58.05
67868;SHT31;54672;46.096;14.470;2022-08-25T16:49:13;26.87;58.26
67868;SHT31;54672;46.096;14.470;2022-08-25T16:51:40;26.69;58.77
67868;SHT31;54672;46.096;14.470;2022-08-25T16:54:08;26.62;59.11
67868;SHT31;54672;46.096;14.470;2022-08-25T16:56:52;26.52;59.50
67868;SHT31;54672;46.096;14.470;2022-08-25T16:59:18;26.48;59.86
67868;SHT31;54672;46.096;14.470;2022-08-25T17:01:44;26.37;60.24
67868;SHT31;54672;46.096;14.470;2022-08-25T17:04:10;26.31;60.60
67868;SHT31;54672;46.096;14.470;2022-08-25T17:06:38;26.27;60.77
67868;SHT31;54672;46.096;14.470;2022-08-25T17:09:04;26.20;60.93
67868;SHT31;54672;46.096;14.470;2022-08-25T17:11:32;26.16;61.10
67868;SHT31;54672;46.096;14.470;2022-08-25T17:14:01;26.07;61.18
67868;SHT31;54672;46.096;14.470;2022-08-25T17:16:31;26.08;61.08
67868;SHT31;54672;46.096;14.470;2022-08-25T17:18:59;26.10;61.03
67868;SHT31;54672;46.096;14.470;2022-08-25T17:21:26;26.14;60.92
67868;SHT31;54672;46.096;14.470;2022-08-25T17:23:55;26.10;60.94
67868;SHT31;54672;46.096;14.470;2022-08-25T17:26:23;26.11;60.96